createdAt,value
2018-08-16T00:02:18.493Z,18.90
2018-08-16T00:04:52.318Z,18.90
2018-08-16T00:07:26.886Z,18.80
2018-08-16T00:10:00.691Z,18.80
2018-08-16T00:12:34.540Z,18.80
2018-08-16T00:15:08.229Z,18.80
2018-08-16T00:17:43.368Z,18.80
2018-08-16T00:20:17.014Z,18.80
2018-08-16T00:22:50.892Z,18.80
2018-08-16T00:25:24.724Z,18.80
2018-08-16T00:27:58.457Z,18.70
2018-08-16T00:30:32.994Z,18.60
2018-08-16T00:33:06.817Z,18.60
2018-08-16T00:35:41.517Z,18.60
2018-08-16T00:38:15.404Z,18.60
2018-08-16T00:40:49.997Z,18.50
2018-08-16T00:43:23.830Z,18.50
2018-08-16T00:45:58.453Z,18.40
2018-08-16T00:48:33.004Z,18.30
2018-08-16T00:51:07.602Z,18.30
2018-08-16T00:53:41.476Z,18.30
2018-08-16T00:56:15.268Z,18.30
2018-08-16T00:58:49.050Z,18.20
2018-08-16T01:01:23.613Z,18.20
2018-08-16T01:03:58.196Z,18.20
2018-08-16T01:06:32.826Z,18.20
2018-08-16T01:09:06.677Z,18.20
2018-08-16T01:11:40.412Z,18.30
2018-08-16T01:14:15.097Z,18.10
2018-08-16T01:16:49.200Z,18.10
2018-08-16T01:19:23.064Z,18.10
2018-08-16T01:21:56.924Z,18.10
2018-08-16T01:24:30.746Z,18.00
2018-08-16T01:27:05.339Z,18.00
2018-08-16T01:32:21.634Z,17.90
2018-08-16T01:34:55.345Z,17.80
2018-08-16T01:37:29.144Z,17.80
2018-08-16T01:40:02.982Z,17.80
2018-08-16T01:42:36.799Z,17.80
2018-08-16T01:45:10.579Z,17.80
2018-08-16T01:47:44.409Z,17.80
2018-08-16T01:50:18.175Z,17.80
2018-08-16T01:52:52.081Z,17.80
2018-08-16T01:55:26.707Z,17.80
2018-08-16T01:58:00.504Z,17.80
2018-08-16T02:00:34.339Z,17.80
2018-08-16T02:03:08.215Z,17.80
2018-08-16T02:05:42.072Z,17.80
2018-08-16T02:08:16.614Z,17.70
2018-08-16T02:10:50.548Z,17.70
2018-08-16T02:13:24.444Z,17.70
2018-08-16T02:15:58.208Z,17.70
2018-08-16T02:18:32.128Z,17.70
2018-08-16T02:21:06.667Z,17.70
2018-08-16T02:23:41.093Z,17.60
2018-08-16T02:26:14.784Z,17.60
2018-08-16T02:28:49.339Z,17.60
2018-08-16T02:31:23.195Z,17.60
2018-08-16T02:33:57.021Z,17.50
2018-08-16T02:36:30.914Z,17.50
2018-08-16T02:39:04.688Z,17.50
2018-08-16T02:41:38.629Z,17.50
2018-08-16T02:44:12.447Z,17.50
2018-08-16T02:46:46.249Z,17.50
2018-08-16T02:49:20.119Z,17.50
2018-08-16T02:51:53.935Z,17.50
2018-08-16T02:54:27.673Z,17.50
2018-08-16T02:57:01.539Z,17.50
2018-08-16T02:59:35.376Z,17.50
2018-08-16T03:02:09.228Z,17.40
2018-08-16T03:04:43.855Z,17.30
2018-08-16T03:07:17.504Z,17.30
2018-08-16T03:09:51.307Z,17.30
2018-08-16T03:12:26.627Z,17.20
2018-08-16T03:15:01.228Z,17.20
2018-08-16T03:17:35.020Z,17.20
2018-08-16T03:20:08.864Z,17.20
2018-08-16T03:22:42.648Z,17.10
2018-08-16T03:25:16.448Z,17.10
2018-08-16T03:27:50.320Z,17.10
2018-08-16T03:30:24.862Z,17.00
2018-08-16T03:32:58.596Z,17.00
2018-08-16T03:35:32.356Z,17.00
2018-08-16T03:38:06.264Z,16.90
2018-08-16T03:40:40.011Z,16.90
2018-08-16T03:43:13.893Z,16.90
2018-08-16T03:45:47.625Z,16.90
2018-08-16T03:48:21.411Z,16.90
2018-08-16T03:50:55.257Z,16.90
2018-08-16T03:53:29.768Z,16.90
2018-08-16T03:56:09.276Z,16.90
2018-08-16T03:58:43.515Z,17.00
2018-08-16T04:01:17.136Z,16.90
2018-08-16T04:03:51.767Z,16.80
2018-08-16T04:06:25.559Z,16.80
2018-08-16T04:08:59.402Z,16.80
2018-08-16T04:11:33.180Z,16.80
2018-08-16T04:14:06.987Z,16.80
2018-08-16T04:16:41.588Z,16.80
2018-08-16T04:19:15.304Z,16.80
2018-08-16T04:21:49.153Z,16.80
2018-08-16T04:24:23.760Z,16.90
2018-08-16T04:26:57.588Z,16.90
2018-08-16T04:29:32.182Z,16.90
2018-08-16T04:32:06.055Z,16.90
2018-08-16T04:34:40.633Z,16.90
2018-08-16T04:37:14.347Z,16.90
2018-08-16T04:39:48.948Z,16.90
2018-08-16T04:42:22.854Z,16.90
2018-08-16T04:44:56.588Z,16.80
2018-08-16T04:47:30.497Z,16.80
2018-08-16T04:50:04.249Z,16.80
2018-08-16T04:52:38.088Z,16.80
2018-08-16T04:55:11.865Z,16.90
2018-08-16T04:57:46.062Z,16.90
2018-08-16T05:00:19.813Z,16.90
2018-08-16T05:02:53.728Z,17.00
2018-08-16T05:05:27.567Z,17.00
2018-08-16T05:08:02.027Z,17.10
2018-08-16T05:10:35.842Z,17.00
2018-08-16T05:13:10.100Z,17.10
2018-08-16T05:15:44.240Z,17.20
2018-08-16T05:18:17.949Z,17.20
2018-08-16T05:20:51.763Z,17.30
2018-08-16T05:23:25.576Z,17.30
2018-08-16T05:25:59.774Z,17.40
2018-08-16T05:28:33.820Z,17.40
2018-08-16T05:31:08.256Z,17.60
2018-08-16T05:33:42.123Z,17.60
2018-08-16T05:36:15.919Z,17.70
2018-08-16T05:38:50.419Z,17.80
2018-08-16T05:41:24.154Z,17.80
2018-08-16T05:43:58.049Z,17.80
2018-08-16T05:46:32.563Z,17.70
2018-08-16T05:49:06.745Z,17.60
2018-08-16T05:51:41.006Z,17.60
2018-08-16T05:54:14.724Z,17.60
2018-08-16T05:56:48.633Z,17.70
2018-08-16T05:59:22.574Z,17.80
2018-08-16T06:01:56.437Z,17.90
2018-08-16T06:04:31.008Z,18.00
2018-08-16T06:07:05.178Z,18.00
2018-08-16T06:09:39.102Z,18.20
2018-08-16T06:12:12.917Z,18.30
2018-08-16T06:14:47.532Z,18.40
2018-08-16T06:17:21.276Z,18.30
2018-08-16T06:19:55.081Z,18.50
2018-08-16T06:22:29.651Z,18.70
2018-08-16T06:25:03.406Z,18.70
2018-08-16T06:27:37.886Z,18.80
2018-08-16T06:30:12.424Z,19.00
2018-08-16T06:32:46.315Z,19.00
2018-08-16T06:35:20.792Z,19.10
2018-08-16T06:37:54.534Z,19.10
2018-08-16T06:40:28.263Z,19.20
2018-08-16T06:43:02.045Z,19.30
2018-08-16T06:45:35.845Z,19.30
2018-08-16T06:48:09.756Z,19.40
2018-08-16T06:50:43.695Z,19.50
2018-08-16T06:53:18.221Z,19.60
2018-08-16T06:55:52.211Z,19.60
2018-08-16T06:58:26.004Z,19.70
2018-08-16T07:00:59.771Z,19.80
2018-08-16T07:03:34.329Z,19.90
2018-08-16T07:06:08.975Z,20.00
2018-08-16T07:08:42.602Z,20.00
2018-08-16T07:11:16.355Z,20.10
2018-08-16T07:13:50.032Z,20.10
2018-08-16T07:16:23.772Z,20.30
2018-08-16T07:18:57.521Z,20.40
2018-08-16T07:21:31.310Z,20.40
2018-08-16T07:24:05.099Z,20.40
2018-08-16T07:26:38.850Z,20.60
2018-08-16T07:29:12.660Z,20.70
2018-08-16T07:31:46.533Z,20.70
2018-08-16T07:34:20.331Z,20.70
2018-08-16T07:36:54.960Z,21.00
2018-08-16T07:39:28.797Z,21.00
2018-08-16T07:42:03.419Z,21.40
2018-08-16T07:44:37.194Z,21.40
2018-08-16T07:47:10.975Z,21.40
2018-08-16T07:49:44.781Z,21.50
2018-08-16T07:52:19.432Z,21.70
2018-08-16T07:54:53.224Z,21.60
2018-08-16T07:57:27.203Z,21.90
2018-08-16T08:00:00.884Z,22.00
2018-08-16T08:02:34.500Z,22.10
2018-08-16T08:05:09.013Z,22.30
2018-08-16T08:07:43.606Z,22.50
2018-08-16T08:10:17.558Z,22.50
2018-08-16T08:12:51.321Z,22.60
2018-08-16T08:15:25.220Z,22.70
2018-08-16T08:17:58.920Z,22.80
2018-08-16T08:20:33.552Z,23.40
2018-08-16T08:23:07.356Z,23.40
2018-08-16T08:25:41.172Z,24.40
2018-08-16T08:28:15.736Z,26.80
2018-08-16T08:30:49.641Z,26.80
2018-08-16T08:33:23.355Z,28.10
2018-08-16T08:35:57.186Z,28.60
2018-08-16T08:38:31.016Z,28.20
2018-08-16T08:41:04.699Z,28.80
2018-08-16T08:43:39.852Z,29.00
2018-08-16T08:46:13.673Z,29.00
2018-08-16T08:48:47.615Z,30.00
2018-08-16T08:51:21.439Z,30.20
2018-08-16T08:54:05.095Z,31.10
2018-08-16T08:56:50.673Z,31.00
2018-08-16T08:59:24.569Z,30.30
2018-08-16T09:01:58.343Z,29.80
2018-08-16T09:04:32.116Z,30.20
2018-08-16T09:07:05.961Z,30.80
2018-08-16T09:09:39.790Z,30.60
2018-08-16T09:12:25.408Z,30.50
2018-08-16T09:28:40.200Z,32.90
2018-08-16T09:34:15.972Z,32.60
2018-08-16T09:36:49.739Z,32.30
2018-08-16T09:39:23.545Z,32.50
2018-08-16T09:41:57.233Z,33.20
2018-08-16T09:44:31.788Z,31.90
2018-08-16T09:47:18.253Z,31.30
2018-08-16T09:49:51.979Z,31.30
2018-08-16T09:52:25.700Z,31.00
2018-08-16T09:54:59.600Z,31.70
2018-08-16T09:57:33.435Z,32.90
2018-08-16T10:00:07.380Z,31.90
2018-08-16T10:02:41.287Z,31.20
2018-08-16T10:05:15.721Z,31.20
2018-08-16T10:07:49.549Z,31.10
2018-08-16T10:10:23.405Z,31.20
2018-08-16T10:12:57.196Z,31.10
2018-08-16T10:15:31.108Z,32.00
2018-08-16T10:18:05.713Z,32.10
2018-08-16T10:20:39.492Z,32.10
2018-08-16T10:23:13.286Z,31.00
2018-08-16T10:25:47.888Z,31.90
2018-08-16T10:28:21.656Z,31.90
2018-08-16T10:30:55.435Z,32.00
2018-08-16T10:33:29.320Z,31.50
2018-08-16T10:36:05.413Z,31.50
2018-08-16T10:38:39.235Z,31.50
2018-08-16T10:41:12.982Z,31.20
2018-08-16T10:43:47.623Z,31.90
2018-08-16T10:46:21.277Z,31.90
2018-08-16T10:48:55.930Z,32.50
2018-08-16T10:51:29.508Z,32.40
2018-08-16T10:54:03.579Z,31.60
2018-08-16T10:56:37.371Z,31.50
2018-08-16T10:59:11.016Z,32.30
2018-08-16T11:01:44.645Z,31.80
2018-08-16T11:04:19.136Z,32.10
2018-08-16T11:06:52.813Z,32.10
2018-08-16T11:09:26.491Z,32.00
2018-08-16T11:12:00.255Z,32.20
2018-08-16T11:14:34.923Z,32.50
2018-08-16T11:17:09.376Z,32.40
2018-08-16T11:19:43.755Z,31.90
2018-08-16T11:22:17.625Z,31.80
2018-08-16T11:24:51.433Z,32.60
2018-08-16T11:27:25.312Z,32.80
2018-08-16T11:29:59.160Z,33.40
2018-08-16T11:32:33.014Z,33.80
2018-08-16T11:35:07.815Z,33.90
2018-08-16T11:37:41.486Z,33.90
2018-08-16T11:40:15.288Z,33.60
2018-08-16T11:42:49.102Z,32.60
2018-08-16T11:45:22.913Z,32.00
2018-08-16T11:47:56.596Z,32.10
2018-08-16T11:50:30.385Z,32.10
2018-08-16T11:53:04.164Z,31.40
2018-08-16T11:55:38.473Z,31.10
2018-08-16T11:58:12.107Z,31.20
2018-08-16T12:00:47.468Z,30.80
2018-08-16T12:03:21.265Z,30.80
2018-08-16T12:05:55.263Z,30.80
2018-08-16T12:08:29.724Z,31.40
2018-08-16T12:11:03.543Z,31.40
2018-08-16T12:13:37.366Z,31.40
2018-08-16T12:16:11.139Z,30.90
2018-08-16T12:18:45.336Z,30.60
2018-08-16T12:21:19.224Z,30.80
2018-08-16T12:23:53.103Z,30.80
2018-08-16T12:26:28.488Z,30.50
2018-08-16T12:29:03.662Z,30.50
2018-08-16T12:31:37.512Z,30.50
2018-08-16T12:34:11.307Z,30.20
2018-08-16T12:36:46.688Z,30.60
2018-08-16T12:39:20.469Z,30.60
2018-08-16T12:41:54.302Z,30.60
2018-08-16T12:44:28.114Z,30.50
2018-08-16T12:47:01.909Z,30.50
2018-08-16T12:49:35.639Z,30.50
2018-08-16T12:52:09.342Z,30.50
2018-08-16T12:54:43.836Z,30.30
2018-08-16T12:57:17.544Z,30.20
2018-08-16T12:59:52.181Z,30.50
2018-08-16T13:02:26.057Z,30.40
2018-08-16T13:05:00.586Z,30.50
2018-08-16T13:07:34.447Z,30.40
2018-08-16T13:10:08.245Z,30.60
2018-08-16T13:12:42.022Z,30.60
2018-08-16T13:15:15.835Z,30.80
2018-08-16T13:17:50.431Z,29.90
2018-08-16T13:20:24.295Z,29.80
2018-08-16T13:22:58.054Z,29.90
2018-08-16T13:25:31.964Z,29.90
2018-08-16T13:28:05.776Z,30.20
2018-08-16T13:30:39.557Z,30.30
2018-08-16T13:33:13.420Z,30.50
2018-08-16T13:35:47.882Z,30.80
2018-08-16T13:38:21.655Z,30.70
2018-08-16T13:40:56.212Z,30.80
2018-08-16T13:43:30.013Z,30.80
2018-08-16T13:46:04.719Z,30.40
2018-08-16T13:48:38.349Z,30.40
2018-08-16T13:51:12.961Z,30.40
2018-08-16T13:53:46.783Z,30.40
2018-08-16T13:56:20.585Z,30.20
2018-08-16T13:58:54.441Z,30.30
2018-08-16T14:01:28.903Z,30.50
2018-08-16T14:04:03.332Z,30.30
2018-08-16T14:06:37.969Z,30.40
2018-08-16T14:09:11.627Z,30.40
2018-08-16T14:11:45.539Z,30.50
2018-08-16T14:14:20.076Z,30.40
2018-08-16T14:16:53.866Z,30.40
2018-08-16T14:19:27.609Z,30.60
2018-08-16T14:22:01.363Z,30.60
2018-08-16T14:24:36.585Z,30.40
2018-08-16T14:27:10.392Z,30.40
2018-08-16T14:29:44.143Z,30.60
2018-08-16T14:32:17.856Z,30.70
2018-08-16T14:34:52.597Z,30.90
2018-08-16T14:37:27.306Z,30.90
2018-08-16T14:40:01.143Z,30.90
2018-08-16T14:42:35.734Z,30.90
2018-08-16T14:45:09.469Z,30.90
2018-08-16T14:47:43.305Z,30.90
2018-08-16T14:50:17.089Z,30.90
2018-08-16T14:52:50.951Z,30.90
2018-08-16T14:55:25.479Z,30.90
2018-08-16T14:58:00.032Z,31.00
2018-08-16T15:00:33.851Z,30.90
2018-08-16T15:03:07.660Z,31.00
2018-08-16T15:05:41.629Z,31.10
2018-08-16T15:08:16.164Z,31.30
2018-08-16T15:10:50.105Z,31.30
2018-08-16T15:13:24.703Z,31.00
2018-08-16T15:15:58.497Z,31.00
2018-08-16T15:18:33.072Z,31.00
2018-08-16T15:21:07.040Z,30.90
2018-08-16T15:23:40.914Z,30.90
2018-08-16T15:26:15.680Z,30.60
2018-08-16T15:28:49.417Z,30.50
2018-08-16T15:31:24.006Z,30.70
2018-08-16T15:33:57.706Z,30.60
2018-08-16T15:36:31.536Z,30.60
2018-08-16T15:39:05.315Z,30.70
2018-08-16T15:41:39.156Z,30.50
2018-08-16T15:44:13.758Z,30.50
2018-08-16T15:46:47.513Z,30.50
2018-08-16T15:49:22.208Z,30.90
2018-08-16T15:51:56.792Z,30.90
2018-08-16T15:54:30.685Z,30.90
2018-08-16T15:57:05.319Z,31.10
2018-08-16T15:59:39.217Z,31.00
2018-08-16T16:02:12.885Z,30.90
2018-08-16T16:04:47.489Z,30.60
2018-08-16T16:07:22.065Z,30.60
2018-08-16T16:09:56.010Z,30.60
2018-08-16T16:12:30.980Z,30.50
2018-08-16T16:15:04.937Z,30.50
2018-08-16T16:17:38.759Z,30.50
2018-08-16T16:20:13.173Z,30.40
2018-08-16T16:22:47.015Z,30.40
2018-08-16T16:25:21.510Z,30.20
2018-08-16T16:27:55.268Z,30.20
2018-08-16T16:30:29.329Z,30.20
2018-08-16T16:33:03.037Z,30.20
2018-08-16T16:35:36.752Z,30.20
2018-08-16T16:38:10.532Z,30.20
2018-08-16T16:40:45.159Z,30.20
2018-08-16T16:43:18.884Z,30.20
2018-08-16T16:45:52.762Z,30.20
2018-08-16T16:48:28.052Z,30.20
2018-08-16T16:51:02.723Z,30.20
2018-08-16T16:53:36.625Z,30.20
2018-08-16T16:56:11.243Z,30.10
2018-08-16T16:58:45.002Z,30.10
2018-08-16T17:01:19.629Z,30.00
2018-08-16T17:03:54.195Z,30.00
2018-08-16T17:06:28.768Z,30.00
2018-08-16T17:09:02.530Z,30.00
2018-08-16T17:11:36.364Z,30.00
2018-08-16T17:14:10.201Z,30.00
2018-08-16T17:16:45.516Z,29.90
2018-08-16T17:19:19.320Z,29.90
2018-08-16T17:21:53.157Z,29.90
2018-08-16T17:24:28.427Z,29.80
2018-08-16T17:27:03.159Z,29.80
2018-08-16T17:29:37.189Z,29.70
2018-08-16T17:32:11.222Z,29.70
2018-08-16T17:34:45.280Z,29.70
2018-08-16T17:37:19.264Z,29.60
2018-08-16T17:39:53.143Z,29.60
2018-08-16T17:42:26.904Z,29.60
2018-08-16T17:45:02.499Z,29.50
2018-08-16T17:47:36.301Z,29.50
2018-08-16T17:50:10.950Z,29.40
2018-08-16T17:52:45.573Z,29.30
2018-08-16T17:55:20.184Z,29.30
2018-08-16T17:57:53.943Z,29.30
2018-08-16T18:00:27.631Z,29.20
2018-08-16T18:03:01.599Z,29.10
2018-08-16T18:05:35.460Z,29.00
2018-08-16T18:08:09.239Z,28.80
2018-08-16T18:10:43.028Z,28.80
2018-08-16T18:13:17.656Z,28.60
2018-08-16T18:15:51.311Z,28.60
2018-08-16T18:18:25.492Z,28.60
2018-08-16T18:20:59.294Z,28.50
2018-08-16T18:23:33.127Z,28.40
2018-08-16T18:26:07.021Z,28.40
2018-08-16T18:28:41.235Z,28.30
2018-08-16T18:31:16.560Z,28.10
2018-08-16T18:33:50.341Z,28.10
2018-08-16T18:36:24.856Z,27.90
2018-08-16T18:38:58.743Z,27.90
2018-08-16T18:41:32.597Z,27.70
2018-08-16T18:44:07.238Z,27.40
2018-08-16T18:46:41.168Z,27.40
2018-08-16T18:49:15.856Z,27.10
2018-08-16T18:51:49.674Z,27.10
2018-08-16T18:54:25.020Z,26.90
2018-08-16T18:56:58.775Z,26.80
2018-08-16T18:59:32.652Z,26.80
2018-08-16T19:02:06.401Z,26.70
2018-08-16T19:04:40.275Z,26.60
2018-08-16T19:07:14.851Z,26.40
2018-08-16T19:09:48.543Z,26.40
2018-08-16T19:12:22.378Z,26.40
2018-08-16T19:14:56.240Z,26.30
2018-08-16T19:17:30.887Z,26.20
2018-08-16T19:20:04.708Z,26.20
2018-08-16T19:22:38.465Z,26.10
2018-08-16T19:25:12.257Z,26.10
2018-08-16T19:27:46.808Z,26.00
2018-08-16T19:30:20.661Z,26.00
2018-08-16T19:32:55.169Z,26.00
2018-08-16T19:35:29.181Z,25.90
2018-08-16T19:38:03.017Z,25.90
2018-08-16T19:40:36.847Z,25.90
2018-08-16T19:43:10.753Z,25.80
2018-08-16T19:45:44.732Z,25.80
2018-08-16T19:48:19.345Z,25.70
2018-08-16T19:50:53.125Z,25.70
2018-08-16T19:53:26.840Z,25.70
2018-08-16T19:56:00.663Z,25.60
2018-08-16T19:58:34.617Z,25.50
2018-08-16T20:01:08.479Z,25.40
2018-08-16T20:03:43.348Z,25.30
2018-08-16T20:06:17.005Z,25.30
2018-08-16T20:08:50.715Z,25.30
2018-08-16T20:11:25.329Z,25.10
2018-08-16T20:13:58.974Z,25.10
2018-08-16T20:16:32.700Z,25.00
2018-08-16T20:19:08.092Z,24.80
2018-08-16T20:21:41.888Z,24.80
2018-08-16T20:24:15.837Z,24.80
2018-08-16T20:26:50.106Z,24.60
2018-08-16T20:29:23.876Z,24.50
2018-08-16T20:31:58.626Z,24.40
2018-08-16T20:34:32.539Z,24.40
2018-08-16T20:37:06.985Z,24.40
2018-08-16T20:39:41.661Z,24.40
2018-08-16T20:42:15.528Z,24.40
2018-08-16T20:44:50.136Z,24.20
2018-08-16T20:47:24.023Z,24.20
2018-08-16T20:49:58.683Z,24.10
2018-08-16T20:52:32.636Z,24.10
2018-08-16T20:55:06.472Z,24.10
2018-08-16T20:57:40.342Z,24.10
2018-08-16T21:00:14.148Z,24.10
2018-08-16T21:02:48.010Z,24.00
2018-08-16T21:05:22.613Z,23.90
2018-08-16T21:07:56.240Z,23.90
2018-08-16T21:10:30.919Z,23.80
2018-08-16T21:13:04.836Z,23.80
2018-08-16T21:15:39.295Z,23.70
2018-08-16T21:18:13.149Z,23.70
2018-08-16T21:20:47.733Z,23.60
2018-08-16T21:23:21.582Z,23.60
2018-08-16T21:25:56.332Z,23.50
2018-08-16T21:28:30.076Z,23.50
2018-08-16T21:31:03.889Z,23.50
2018-08-16T21:33:38.576Z,23.40
2018-08-16T21:36:12.284Z,23.30
2018-08-16T21:38:46.030Z,23.40
2018-08-16T21:41:19.915Z,23.30
2018-08-16T21:43:54.524Z,23.30
2018-08-16T21:46:28.175Z,23.30
2018-08-16T21:49:01.989Z,23.30
2018-08-16T21:51:35.737Z,23.30
2018-08-16T21:54:10.391Z,23.30
2018-08-16T21:56:44.877Z,23.40
2018-08-16T21:59:18.636Z,23.40
2018-08-16T22:01:53.111Z,23.50
2018-08-16T22:04:26.907Z,23.50
2018-08-16T22:07:00.967Z,23.50
2018-08-16T22:09:34.807Z,23.50
2018-08-16T22:12:09.375Z,23.50
2018-08-16T22:14:43.324Z,23.50
2018-08-16T22:17:17.108Z,23.40
2018-08-16T22:19:50.967Z,23.40
2018-08-16T22:22:24.614Z,23.30
2018-08-16T22:24:59.133Z,23.10
2018-08-16T22:27:32.990Z,23.10
2018-08-16T22:30:07.646Z,23.00
2018-08-16T22:32:42.203Z,22.90
2018-08-16T22:35:16.782Z,22.90
2018-08-16T22:37:50.546Z,22.90
2018-08-16T22:40:25.131Z,22.70
2018-08-16T22:42:58.836Z,22.70
2018-08-16T22:45:32.670Z,22.70
2018-08-16T22:48:06.471Z,22.60
2018-08-16T22:50:40.327Z,22.60
2018-08-16T22:53:14.190Z,22.50
2018-08-16T22:55:48.695Z,22.50
2018-08-16T22:58:23.275Z,22.40
2018-08-16T23:00:57.822Z,22.40
2018-08-16T23:03:31.516Z,22.40
2018-08-16T23:06:06.171Z,22.30
2018-08-16T23:08:40.715Z,22.20
2018-08-16T23:11:15.327Z,22.10
2018-08-16T23:13:49.090Z,22.10
2018-08-16T23:16:22.863Z,22.00
2018-08-16T23:18:56.536Z,22.00
2018-08-16T23:21:30.528Z,22.00
2018-08-16T23:24:04.908Z,21.90
2018-08-16T23:26:38.584Z,21.90
2018-08-16T23:29:13.148Z,21.90
2018-08-16T23:31:47.029Z,21.90
2018-08-16T23:34:20.696Z,21.90
2018-08-16T23:36:54.540Z,21.90
2018-08-16T23:39:28.450Z,21.90
2018-08-16T23:42:02.990Z,21.90
2018-08-16T23:44:36.877Z,21.80
2018-08-16T23:47:11.525Z,21.80
2018-08-16T23:49:46.040Z,21.80
2018-08-16T23:52:20.689Z,21.80
2018-08-16T23:54:54.910Z,21.80
2018-08-16T23:57:28.502Z,21.80
